This is the latest recevied weather packets stored in our database for station/object R6DH-11. If no packets are shown the sender has not sent any weather packets the latest 10 day(s).
| Time | Temp. | Humidity | Pressure | Rain* | Wind** | Luminosity | Snow |
|---|---|---|---|---|---|---|---|
| 1778144523 | 25° C | 39% | 1017 hPa | - | - | - | - |
| 1778143619 | 23.33° C | 42% | 1017 hPa | - | - | - | - |
| 1778142718 | 22.78° C | 43% | 1017.2 hPa | - | - | - | - |
| 1778141815 | 22.78° C | 44% | 1017.1 hPa | - | - | - | - |
| 1778140914 | 21.67° C | 46% | 1017.1 hPa | - | - | - | - |
| 1778140012 | 21.67° C | 47% | 1017.1 hPa | - | - | - | - |
| 1778139111 | 21.67° C | 47% | 1017.1 hPa | - | - | - | - |
| 1778138209 | 20.56° C | 46% | 1017.2 hPa | - | - | - | - |
| 1778137308 | 20° C | 48% | 1017.2 hPa | - | - | - | - |
| 1778136406 | 20.56° C | 48% | 1017.1 hPa | - | - | - | - |
| 1778135504 | 19.44° C | 48% | 1017.2 hPa | - | - | - | - |
| 1778134603 | 19.44° C | 52% | 1017.1 hPa | - | - | - | - |
| 1778133701 | 18.89° C | 53% | 1017.2 hPa | - | - | - | - |
| 1778132800 | 17.22° C | 59% | 1017.2 hPa | - | - | - | - |
| 1778131898 | 16.11° C | 63% | 1017.3 hPa | - | - | - | - |
| 1778130997 | 15.56° C | 65% | 1017.4 hPa | - | - | - | - |
| 1778130095 | 15° C | 67% | 1017.5 hPa | - | - | - | - |
| 1778129194 | 13.33° C | 76% | 1017.2 hPa | - | - | - | - |
| 1778128292 | 12.22° C | 78% | 1017.1 hPa | - | - | - | - |
| 1778127390 | 11.67° C | 79% | 1017 hPa | - | - | - | - |
| 1778126496 | 10.56° C | 81% | 1016.8 hPa | - | - | - | - |
| 1778125587 | 10.56° C | 78% | 1016.6 hPa | - | - | - | - |
| 1778124686 | 10° C | 78% | 1016.5 hPa | - | - | - | - |
| 1778123783 | 10° C | 77% | 1016.4 hPa | - | - | - | - |
| 1778122918 | 9.44° C | 77% | 1016.1 hPa | - | - | - | - |
* Rain since midnight (hover to see other rain measurements)
** Current wind speed in m/s (hover to see current wind gust speed)